Time;durP1;ratioP1;P1;durP2;ratioP2;P2;SDS_P1;SDS_P2;PMS_P1;PMS_P2;Temp;Humidity;BMP_temperature;BMP_pressure;BME280_temperature;BME280_humidity;BME280_pressure;Samples;Min_cycle;Max_cycle;Signal;HPM_P1;HPM_P2
2023/10/10 00:04:51;;;;;;;27.13;13.58;;;;;;;5.40;100.00;101121.03;5131388;56;1138778;-73
2023/10/10 00:09:56;;;;;;;28.90;12.33;;;;;;;5.30;100.00;101110.98;5119859;56;1141049;-73
2023/10/10 00:15:05;;;;;;;27.10;10.17;;;;;;;5.24;100.00;101104.70;5119522;56;1140750;-72
2023/10/10 00:20:22;;;;;;;15.63;9.00;;;;;;;5.15;100.00;101109.06;5058001;56;1143359;-73
2023/10/10 00:25:30;;;;;;;18.30;10.67;;;;;;;5.16;100.00;101108.15;5036114;56;1140996;-72
2023/10/10 00:30:43;;;;;;;15.73;8.27;;;;;;;5.15;100.00;101106.45;5036472;56;1141439;-73
2023/10/10 00:35:44;;;;;;;16.27;9.83;;;;;;;5.18;100.00;101102.38;5016810;56;1142318;-73
2023/10/10 00:40:50;;;;;;;16.90;8.45;;;;;;;5.21;100.00;101105.30;5055659;56;1138810;-73
2023/10/10 00:45:57;;;;;;;32.03;12.35;;;;;;;5.21;100.00;101108.77;5089551;56;1139076;-73
2023/10/10 00:51:06;;;;;;;10.87;5.77;;;;;;;5.10;100.00;101101.02;5120529;56;1140717;-73
2023/10/10 00:56:14;;;;;;;10.93;5.63;;;;;;;4.91;100.00;101097.05;5140322;56;1138743;-73
2023/10/10 01:01:19;;;;;;;22.57;9.53;;;;;;;4.90;100.00;101092.73;5120143;56;1140886;-72
2023/10/10 01:06:26;;;;;;;15.37;8.07;;;;;;;4.93;100.00;101098.69;5119792;56;1138702;-73
2023/10/10 01:11:32;;;;;;;14.67;7.50;;;;;;;4.90;100.00;101088.34;5087442;56;1139206;-75
2023/10/10 01:16:39;;;;;;;13.03;7.57;;;;;;;4.87;100.00;101075.40;5067219;56;1138943;-73
2023/10/10 01:21:50;;;;;;;18.67;9.33;;;;;;;4.68;100.00;101086.77;5043809;55;1139024;-73
2023/10/10 01:26:52;;;;;;;18.17;9.40;;;;;;;4.66;100.00;101080.27;5043096;56;1139057;-73
2023/10/10 01:32:02;;;;;;;9.93;5.78;;;;;;;4.65;100.00;101079.03;5063444;56;1139021;-72
2023/10/10 01:37:18;;;;;;;18.37;6.93;;;;;;;4.68;100.00;101080.20;5041624;56;1138579;-72
2023/10/10 01:42:18;;;;;;;11.83;6.90;;;;;;;4.71;100.00;101080.08;5041093;56;1140577;-73
2023/10/10 01:47:26;;;;;;;9.13;6.37;;;;;;;4.69;100.00;101080.14;5062846;56;1138840;-72
2023/10/10 01:52:34;;;;;;;10.97;6.10;;;;;;;4.63;100.00;101079.09;5043159;57;1136573;-72
2023/10/10 01:57:39;;;;;;;8.25;5.55;;;;;;;4.62;100.00;101089.18;5043065;57;1138617;-73
2023/10/10 02:02:45;;;;;;;9.13;5.80;;;;;;;4.41;100.00;101094.91;5062921;57;1136441;-73
2023/10/10 02:07:53;;;;;;;10.08;6.45;;;;;;;4.26;100.00;101098.18;5104025;56;1136533;-73
2023/10/10 02:13:00;;;;;;;12.45;7.58;;;;;;;4.21;100.00;101087.04;5054080;56;1140673;-72
2023/10/10 02:18:12;;;;;;;16.00;8.77;;;;;;;4.08;100.00;101091.09;5123909;56;1138818;-73
2023/10/10 02:23:24;;;;;;;22.30;12.10;;;;;;;4.16;100.00;101088.53;5122360;56;1139067;-72
2023/10/10 02:29:16;;;;;;;14.90;8.30;;;;;;;4.20;100.00;101087.50;5120172;56;1141063;-73
2023/10/10 02:33:58;;;;;;;12.07;7.28;;;;;;;4.23;100.00;101098.30;5114067;56;1138924;-73
2023/10/10 02:39:26;;;;;;;11.83;6.83;;;;;;;4.12;100.00;101093.98;5139676;56;1138767;-72
2023/10/10 02:49:42;;;;;;;20.10;8.87;;;;;;;4.02;100.00;101106.58;5055788;57;1138532;-72
2023/10/10 02:54:56;;;;;;;13.47;9.33;;;;;;;3.93;100.00;101103.50;5055950;57;1138713;-73
2023/10/10 03:05:39;;;;;;;18.67;9.17;;;;;;;3.85;100.00;101093.33;5058402;56;1139026;-73
2023/10/10 03:10:54;;;;;;;20.03;10.60;;;;;;;3.87;100.00;101094.98;5097080;56;1140983;-74
2023/10/10 05:24:29;;;;;;;12.97;9.50;;;;;;;4.04;100.00;101106.52;5096204;56;1140734;-73
2023/10/10 05:29:36;;;;;;;15.75;9.80;;;;;;;4.14;100.00;101110.45;5078637;56;1140905;-72
2023/10/10 05:34:43;;;;;;;15.85;11.28;;;;;;;4.24;100.00;101101.31;5079087;56;1140654;-72
2023/10/10 05:39:56;;;;;;;18.40;13.67;;;;;;;4.34;100.00;101113.09;5127231;56;1141118;-72
2023/10/10 05:44:56;;;;;;;18.92;13.03;;;;;;;4.40;100.00;101121.16;5079474;56;1141188;-73
2023/10/10 05:50:02;;;;;;;24.73;16.07;;;;;;;4.50;100.00;101120.69;5026309;57;1140931;-73
2023/10/10 05:55:11;;;;;;;20.70;13.37;;;;;;;4.62;100.00;101125.86;5064339;57;1142911;-73
2023/10/10 06:00:18;;;;;;;20.60;13.78;;;;;;;4.73;100.00;101125.41;4977917;56;1143105;-74
2023/10/10 06:05:23;;;;;;;30.50;16.80;;;;;;;4.83;100.00;101124.08;4992242;56;1142973;-73
2023/10/10 06:10:36;;;;;;;39.23;20.47;;;;;;;4.96;100.00;101126.54;5014148;56;1143277;-73
2023/10/10 06:15:38;;;;;;;35.73;18.45;;;;;;;5.04;100.00;101134.08;5009655;56;1143124;-73
2023/10/10 06:20:47;;;;;;;24.93;19.17;;;;;;;5.09;100.00;101138.63;4987985;57;1143265;-73
2023/10/10 06:26:00;;;;;;;24.03;17.77;;;;;;;5.10;100.00;101140.34;4992669;57;1140889;-72
2023/10/10 06:31:12;;;;;;;23.25;15.88;;;;;;;5.17;100.00;101144.40;4973671;56;1140820;-72
2023/10/10 06:41:39;;;;;;;23.73;15.83;;;;;;;5.33;100.00;101147.17;5084447;56;1142672;-73
2023/10/10 06:46:48;;;;;;;22.93;15.95;;;;;;;5.43;100.00;101135.33;5105048;56;1142972;-73
2023/10/10 06:51:55;;;;;;;23.02;16.27;;;;;;;5.57;100.00;101150.81;5082354;56;1143271;-73
2023/10/10 07:02:21;;;;;;;20.48;14.50;;;;;;;5.91;100.00;101139.60;5047840;57;1143184;-72
2023/10/10 07:07:27;;;;;;;28.03;13.93;;;;;;;6.08;100.00;101129.59;5035717;57;1143113;-73
2023/10/10 07:12:34;;;;;;;18.98;13.72;;;;;;;6.32;100.00;101120.94;5061342;57;1143033;-74
2023/10/10 07:17:40;;;;;;;19.12;13.83;;;;;;;6.62;100.00;101135.15;5107403;56;1143045;-72
2023/10/10 07:22:46;;;;;;;30.03;18.63;;;;;;;6.92;100.00;101137.11;5133448;56;1143091;-73
2023/10/10 07:27:52;;;;;;;26.10;17.47;;;;;;;7.17;100.00;101142.80;5067202;56;1143128;-72
2023/10/10 07:33:00;;;;;;;23.27;15.95;;;;;;;7.41;100.00;101141.45;5069596;56;1143046;-72
2023/10/10 07:38:05;;;;;;;58.58;21.35;;;;;;;7.68;100.00;101144.81;5029575;56;1143139;-72
2023/10/10 07:43:12;;;;;;;30.97;20.17;;;;;;;7.75;100.00;101136.50;5079646;56;1142868;-73
2023/10/10 07:48:39;;;;;;;19.75;14.13;;;;;;;7.75;100.00;101143.08;5048260;56;1143212;-73
2023/10/10 07:53:34;;;;;;;20.63;12.77;;;;;;;7.80;100.00;101138.85;5031242;57;1142923;-73
2023/10/10 07:58:43;;;;;;;25.83;17.53;;;;;;;7.88;100.00;101128.75;5037677;56;1143127;-73
2023/10/10 08:03:49;;;;;;;21.90;15.40;;;;;;;8.02;100.00;101127.96;4996245;56;1145911;-72
2023/10/10 08:09:18;;;;;;;19.10;12.78;;;;;;;8.23;100.00;101136.43;5151000;56;1143087;-73
2023/10/10 08:14:17;;;;;;;46.53;23.70;;;;;;;8.40;100.00;101139.78;5138721;56;1142870;-73
2023/10/10 08:19:33;;;;;;;34.27;16.93;;;;;;;8.50;100.00;101132.67;5069681;56;1143138;-72
2023/10/10 08:24:30;;;;;;;29.70;16.80;;;;;;;8.59;100.00;101121.09;5040109;56;1143345;-72
2023/10/10 08:29:36;;;;;;;23.47;13.53;;;;;;;8.86;100.00;101126.49;4993932;57;1143295;-72
2023/10/10 08:34:42;;;;;;;45.20;21.43;;;;;;;9.02;100.00;101125.94;5003182;57;1143244;-73
2023/10/10 08:39:49;;;;;;;38.13;23.73;;;;;;;9.16;100.00;101132.56;5037517;56;1143134;-73
2023/10/10 08:44:58;;;;;;;28.77;16.80;;;;;;;9.31;100.00;101127.27;5020802;56;1142955;-73
2023/10/10 08:50:04;;;;;;;15.17;11.53;;;;;;;9.39;100.00;101135.07;4999218;57;1142969;-72
2023/10/10 08:55:10;;;;;;;14.43;9.05;;;;;;;9.57;100.00;101127.78;5008456;57;1143067;-72
2023/10/10 09:00:17;;;;;;;20.67;11.50;;;;;;;9.73;100.00;101137.74;5019323;56;1141129;-72
2023/10/10 09:05:32;;;;;;;17.10;10.30;;;;;;;9.87;100.00;101127.60;5013567;56;1143019;-73
2023/10/10 09:10:43;;;;;;;16.23;8.40;;;;;;;10.10;100.00;101124.77;4988566;56;1143247;-74
2023/10/10 09:15:55;;;;;;;16.60;13.63;;;;;;;10.38;100.00;101131.30;5006254;57;1143588;-73
2023/10/10 09:21:21;;;;;;;22.80;12.23;;;;;;;10.45;100.00;101119.81;4977417;57;1145441;-72
2023/10/10 09:26:29;;;;;;;20.27;13.47;;;;;;;10.47;100.00;101124.05;4990037;57;1145060;-73
2023/10/10 09:31:37;;;;;;;13.10;9.80;;;;;;;10.69;100.00;101127.89;4989641;58;1145223;-73
2023/10/10 09:36:50;;;;;;;12.40;8.77;;;;;;;10.74;100.00;101114.70;5008737;58;1142999;-73
2023/10/10 09:53:19;;;;;;;22.07;10.60;;;;;;;10.83;100.00;101119.86;5011983;56;1142891;-73
2023/10/10 09:57:26;;;;;;;17.77;11.47;;;;;;;11.05;100.00;101125.33;5038672;56;1145022;-73
2023/10/10 10:02:43;;;;;;;12.37;10.83;;;;;;;11.14;100.00;101123.38;5066794;57;1145186;-73
2023/10/10 10:08:06;;;;;;;17.97;11.83;;;;;;;11.17;100.00;101117.00;5068573;56;1145373;-73
2023/10/10 10:13:28;;;;;;;12.40;9.88;;;;;;;11.25;100.00;101116.00;5099403;56;1145113;-72
2023/10/10 10:18:44;;;;;;;;;;;;;;;11.41;100.00;101113.95;5103122;56;1143095;-72
2023/10/10 10:24:02;;;;;;;14.55;10.75;;;;;;;11.59;100.00;101111.79;5070395;56;978105;-73
2023/10/10 10:28:56;;;;;;;16.13;11.70;;;;;;;11.67;100.00;101106.77;5068785;56;1142810;-74
2023/10/10 10:34:31;;;;;;;15.10;11.93;;;;;;;11.77;100.00;101109.13;5039419;56;1145173;-73
2023/10/10 10:39:35;;;;;;;14.67;11.63;;;;;;;11.87;100.00;101096.91;5016742;56;1145563;-72
2023/10/10 10:44:58;;;;;;;18.23;11.57;;;;;;;11.96;100.00;101088.75;5023100;56;1145332;-73
2023/10/10 10:50:04;;;;;;;13.43;10.33;;;;;;;12.00;100.00;101094.68;5040923;57;1144964;-73
2023/10/10 10:55:27;;;;;;;13.73;11.10;;;;;;;12.06;100.00;101091.10;4976247;56;1145083;-73
2023/10/10 11:00:56;;;;;;;12.20;9.00;;;;;;;12.20;100.00;101096.70;5005875;56;1145041;-73
2023/10/10 11:05:42;;;;;;;13.62;11.25;;;;;;;12.33;100.00;101098.78;4998923;56;1143192;-73
2023/10/10 11:10:48;;;;;;;15.90;11.53;;;;;;;12.47;100.00;101091.95;5048495;56;1145113;-72
2023/10/10 11:16:10;;;;;;;16.45;11.88;;;;;;;12.61;100.00;101095.71;4949941;57;1145538;-75
2023/10/10 11:21:11;;;;;;;20.32;15.43;;;;;;;12.82;100.00;101089.72;4992070;57;1145021;-72
2023/10/10 11:26:14;;;;;;;19.95;15.35;;;;;;;12.93;100.00;101091.89;4968066;57;1145190;-72
2023/10/10 11:31:29;;;;;;;27.63;17.63;;;;;;;13.04;100.00;101087.05;5042829;56;1145168;-73
2023/10/10 11:36:39;;;;;;;15.07;11.20;;;;;;;13.14;100.00;101084.53;5054945;56;1145169;-73
2023/10/10 11:41:50;;;;;;;18.50;13.30;;;;;;;13.22;100.00;101073.69;5055234;56;1144940;-72
2023/10/10 11:47:04;;;;;;;15.93;13.90;;;;;;;13.30;100.00;101065.93;5068606;56;1145142;-73
2023/10/10 11:52:04;;;;;;;15.15;11.93;;;;;;;13.43;100.00;101059.17;5075157;56;1144796;-72
2023/10/10 11:57:10;;;;;;;18.85;14.68;;;;;;;13.59;100.00;101056.11;5134123;56;1145497;-72
2023/10/10 12:02:18;;;;;;;16.83;13.43;;;;;;;13.70;100.00;101053.41;5126375;56;1145361;-72
2023/10/10 12:07:24;;;;;;;19.45;13.62;;;;;;;13.93;100.00;101051.50;4917585;58;1145365;-73
2023/10/10 12:12:30;;;;;;;16.93;13.80;;;;;;;13.98;100.00;101048.83;5116060;56;1145214;-72
2023/10/10 12:17:38;;;;;;;16.07;11.97;;;;;;;14.06;100.00;101041.03;5118034;56;1145193;-73
2023/10/10 12:22:43;;;;;;;14.50;10.63;;;;;;;14.04;100.00;101048.81;5121738;56;1144960;-72
2023/10/10 12:27:49;;;;;;;18.30;11.03;;;;;;;14.07;100.00;101049.38;5101054;56;1145380;-72
2023/10/10 12:32:56;;;;;;;12.63;9.60;;;;;;;13.93;100.00;101040.37;5023628;56;1145147;-74
2023/10/10 12:38:02;;;;;;;14.58;11.10;;;;;;;13.82;100.00;101052.39;5066496;56;1143001;-73
2023/10/10 12:43:11;;;;;;;16.35;11.40;;;;;;;13.66;100.00;101048.83;5015453;56;1145045;-72
2023/10/10 12:48:20;;;;;;;15.20;11.23;;;;;;;13.56;100.00;101039.08;5034406;56;1144957;-72
2023/10/10 12:53:23;;;;;;;14.50;11.67;;;;;;;13.47;100.00;101034.02;5038491;56;1145320;-72
2023/10/10 12:58:31;;;;;;;16.40;10.57;;;;;;;13.37;100.00;101034.41;5025112;56;1145604;-72
2023/10/10 13:03:37;;;;;;;15.27;11.23;;;;;;;13.21;100.00;101042.77;5030931;56;1145323;-72
2023/10/10 13:09:19;;;;;;;14.53;10.15;;;;;;;13.21;100.00;101042.77;5002540;56;1145241;-73
2023/10/10 13:13:58;;;;;;;13.93;11.13;;;;;;;13.21;100.00;101029.98;5034285;56;1145051;-73
2023/10/10 13:19:09;;;;;;;16.95;11.50;;;;;;;13.26;100.00;101026.48;5057510;56;1145364;-73
2023/10/10 13:24:15;;;;;;;21.97;13.80;;;;;;;13.26;100.00;101026.48;5041889;56;1145020;-73
2023/10/10 13:29:21;;;;;;;29.17;15.07;;;;;;;13.21;100.00;101026.84;5061154;56;1144953;-73
2023/10/10 13:34:26;;;;;;;18.47;12.57;;;;;;;13.22;100.00;101036.50;5055480;56;1145184;-72
2023/10/10 13:39:43;;;;;;;15.03;11.10;;;;;;;13.25;100.00;101038.06;5004704;56;1145632;-72
2023/10/10 13:44:42;;;;;;;18.17;12.20;;;;;;;13.28;100.00;101027.20;5055743;56;1145287;-74
2023/10/10 13:50:13;;;;;;;16.07;12.67;;;;;;;13.31;100.00;101010.50;5132947;56;1145125;-74
2023/10/10 13:54:55;;;;;;;27.47;16.63;;;;;;;13.27;100.00;101012.23;5101383;56;1204377;-73
2023/10/10 14:00:18;;;;;;;21.13;15.07;;;;;;;13.26;100.00;101011.87;5119184;56;1145333;-74
2023/10/10 14:05:14;;;;;;;21.30;16.05;;;;;;;13.20;100.00;101013.19;5133896;56;1145047;-74
2023/10/10 14:10:20;;;;;;;24.43;15.47;;;;;;;13.13;100.00;100997.38;5118418;56;1145278;-73
2023/10/10 14:15:26;;;;;;;28.77;21.47;;;;;;;13.13;100.00;101003.17;5118207;56;1145294;-73
2023/10/10 14:20:33;;;;;;;35.03;19.97;;;;;;;13.13;100.00;101001.84;5138256;56;1145222;-73
2023/10/10 14:25:38;;;;;;;20.13;15.30;;;;;;;13.11;100.00;101011.26;5119015;56;1145176;-73
2023/10/10 14:30:51;;;;;;;22.20;16.07;;;;;;;13.10;100.00;101007.39;5118675;56;1145273;-73
2023/10/10 14:35:58;;;;;;;41.18;21.87;;;;;;;13.09;100.00;101017.17;5084452;56;1145312;-75
2023/10/10 14:41:07;;;;;;;44.08;25.35;;;;;;;13.09;100.00;101013.19;5023040;56;1145192;-73
2023/10/10 14:46:11;;;;;;;122.10;63.33;;;;;;;13.12;100.00;101014.76;5075597;56;1145398;-72
2023/10/10 14:51:20;;;;;;;135.53;73.63;;;;;;;13.07;100.00;101021.75;5121022;56;1147251;-73
2023/10/10 14:56:34;;;;;;;113.07;63.50;;;;;;;13.02;100.00;101022.11;5101549;56;1147116;-72
2023/10/10 15:01:36;;;;;;;73.00;42.13;;;;;;;12.98;100.00;101019.36;5086445;55;1146985;-73
2023/10/10 15:06:43;;;;;;;55.10;33.47;;;;;;;12.98;100.00;101013.21;5048216;56;1145097;-72
2023/10/10 15:11:49;;;;;;;34.17;21.03;;;;;;;12.99;100.00;101004.25;5038452;57;1145201;-73
2023/10/10 15:16:58;;;;;;;30.63;18.73;;;;;;;13.03;100.00;100990.61;5023682;56;1145126;-73
2023/10/10 15:22:02;;;;;;;74.70;50.17;;;;;;;13.11;100.00;100991.82;5083912;56;1145043;-74
2023/10/10 15:27:09;;;;;;;27.58;18.87;;;;;;;13.09;100.00;101005.22;5119719;56;1145202;-73
2023/10/10 15:32:15;;;;;;;30.88;20.92;;;;;;;13.11;100.00;100998.46;5038825;57;1145184;-73
2023/10/10 15:37:26;;;;;;;33.77;20.03;;;;;;;13.06;100.00;101004.13;5041091;56;1145031;-73
2023/10/10 15:42:27;;;;;;;43.13;22.77;;;;;;;13.03;100.00;100991.94;5109238;56;1145052;-73
2023/10/10 15:47:33;;;;;;;28.30;20.70;;;;;;;13.03;100.00;100988.44;5061159;57;1145350;-73
2023/10/10 15:52:39;;;;;;;31.77;20.27;;;;;;;13.03;100.00;100987.96;5006479;57;1144845;-74
2023/10/10 15:57:44;;;;;;;27.15;18.85;;;;;;;13.01;100.00;100992.55;4921220;57;1145093;-74
2023/10/10 16:02:52;;;;;;;28.47;18.97;;;;;;;12.99;100.00;100990.49;4991862;57;1145418;-74
2023/10/10 16:07:58;;;;;;;28.60;19.73;;;;;;;12.89;100.00;100994.86;4936869;57;1207404;-73
2023/10/10 16:13:07;;;;;;;32.53;20.30;;;;;;;12.86;100.00;100986.28;4932661;58;1145288;-74
2023/10/10 16:18:11;;;;;;;31.57;19.92;;;;;;;12.78;100.00;100988.23;4955985;58;1145296;-74
2023/10/10 16:23:19;;;;;;;32.42;20.40;;;;;;;12.69;100.00;101000.89;4939766;57;1145398;-73
2023/10/10 16:28:24;;;;;;;40.80;24.20;;;;;;;12.62;100.00;101003.68;4888796;58;1145195;-73
2023/10/10 16:33:30;;;;;;;47.07;26.47;;;;;;;12.60;100.00;101002.47;4816026;58;1145354;-73
2023/10/10 16:38:36;;;;;;;38.90;22.40;;;;;;;12.57;100.00;101000.53;4915864;58;1144793;-73
2023/10/10 16:43:42;;;;;;;43.23;25.10;;;;;;;12.53;100.00;101000.41;5020521;56;1145096;-73
2023/10/10 16:48:48;;;;;;;49.20;30.03;;;;;;;12.46;100.00;101006.69;5061478;56;1144993;-73
2023/10/10 16:53:55;;;;;;;69.40;31.83;;;;;;;12.43;100.00;101013.55;4965189;56;1145347;-73
2023/10/10 16:59:00;;;;;;;53.83;31.37;;;;;;;12.39;100.00;101008.59;4885419;58;1144912;-74
2023/10/10 17:04:06;;;;;;;36.98;23.65;;;;;;;12.41;100.00;101004.86;5143832;55;1145160;-73
2023/10/10 17:09:13;;;;;;;48.28;27.05;;;;;;;12.38;100.00;101002.92;5034578;56;1145138;-74
2023/10/10 17:14:21;;;;;;;48.77;27.33;;;;;;;12.36;100.00;100993.78;5035157;57;1145183;-73
2023/10/10 17:19:27;;;;;;;42.47;27.17;;;;;;;12.39;100.00;100987.37;5076897;56;1145575;-74
2023/10/10 17:24:33;;;;;;;51.43;31.47;;;;;;;12.45;100.00;100980.27;5109829;55;1145009;-75
2023/10/10 17:29:38;;;;;;;86.43;41.93;;;;;;;12.53;100.00;100977.37;5089093;56;1145081;-74
2023/10/10 17:34:44;;;;;;;58.33;35.38;;;;;;;12.57;100.00;100971.34;5074591;56;1145160;-73
2023/10/10 17:39:50;;;;;;;68.57;42.37;;;;;;;12.57;100.00;100969.53;5100764;56;1145069;-75
2023/10/10 17:44:57;;;;;;;51.77;32.23;;;;;;;12.58;100.00;100970.38;4898160;58;1145300;-74
2023/10/10 17:50:03;;;;;;;45.23;28.67;;;;;;;12.55;100.00;100970.14;4975086;57;1144953;-74
2023/10/10 17:55:09;;;;;;;49.88;28.65;;;;;;;12.53;100.00;100956.14;4986406;57;1145416;-74
2023/10/10 18:00:16;;;;;;;53.85;33.73;;;;;;;12.49;100.00;100953.39;4993383;57;1145384;-74
2023/10/10 18:05:24;;;;;;;37.87;26.40;;;;;;;12.48;100.00;100949.53;4886129;58;1145301;-74
2023/10/10 18:10:28;;;;;;;44.13;30.70;;;;;;;12.48;100.00;100950.86;4979332;58;1145379;-74
2023/10/10 18:15:36;;;;;;;49.93;31.47;;;;;;;12.49;100.00;100940.12;4960223;57;1145661;-75
2023/10/10 18:20:43;;;;;;;49.65;32.05;;;;;;;12.50;100.00;100948.93;4959553;58;1145011;-74
2023/10/10 18:25:48;;;;;;;40.23;28.00;;;;;;;12.47;100.00;100943.38;4978459;58;1145102;-74
2023/10/10 18:30:54;;;;;;;50.13;30.47;;;;;;;12.41;100.00;100933.23;4989569;57;1145127;-74
2023/10/10 18:35:59;;;;;;;43.30;28.20;;;;;;;12.32;100.00;100915.41;5002831;57;1145318;-74
2023/10/10 18:41:06;;;;;;;39.43;27.70;;;;;;;12.24;100.00;100916.47;5073276;56;1145202;-73
2023/10/10 18:46:11;;;;;;;60.03;34.50;;;;;;;12.27;100.00;100918.89;5082153;56;1144992;-75
2023/10/10 18:51:17;;;;;;;50.95;32.35;;;;;;;12.22;100.00;100919.23;5053794;56;1145293;-74
2023/10/10 18:56:23;;;;;;;44.07;28.23;;;;;;;12.18;100.00;100915.16;5014651;56;1145100;-74
2023/10/10 19:01:34;;;;;;;53.97;34.80;;;;;;;12.13;100.00;100923.95;5025038;57;1145239;-74
2023/10/10 19:06:38;;;;;;;40.77;27.33;;;;;;;12.07;100.00;100913.80;5035190;56;1145067;-73
2023/10/10 19:11:44;;;;;;;42.30;28.57;;;;;;;12.05;100.00;100905.16;5047574;56;1145057;-73
2023/10/10 19:16:50;;;;;;;40.67;28.37;;;;;;;12.04;100.00;100886.71;5114962;56;1145647;-73
2023/10/10 19:21:56;;;;;;;37.07;26.13;;;;;;;12.00;100.00;100884.77;5032065;56;1145067;-74
2023/10/10 19:27:10;;;;;;;41.42;27.40;;;;;;;12.01;100.00;100877.66;5041918;56;1144919;-74
2023/10/10 19:32:13;;;;;;;52.13;28.92;;;;;;;11.98;100.00;100876.09;4982289;56;1144956;-73
2023/10/10 19:37:18;;;;;;;50.78;29.07;;;;;;;11.91;100.00;100869.59;4989982;57;1145248;-73
2023/10/10 19:42:26;;;;;;;44.37;27.13;;;;;;;11.91;100.00;100869.59;5040270;56;1145131;-73
2023/10/10 19:47:32;;;;;;;43.27;27.57;;;;;;;11.95;100.00;100870.54;5153480;56;1145105;-73
2023/10/10 19:52:40;;;;;;;42.73;27.87;;;;;;;11.96;100.00;100868.25;5104811;55;1144930;-73
2023/10/10 19:57:46;;;;;;;38.70;25.77;;;;;;;11.93;100.00;100872.94;5039550;57;1145109;-73
2023/10/10 20:02:57;;;;;;;40.20;24.93;;;;;;;11.91;100.00;100871.77;5056253;56;1145065;-73
2023/10/10 20:08:06;;;;;;;33.50;24.27;;;;;;;11.87;100.00;100868.13;5124124;55;1145502;-75
2023/10/10 20:13:12;;;;;;;39.95;26.75;;;;;;;11.83;100.00;100873.30;5069221;56;1145025;-73
2023/10/10 20:18:20;;;;;;;37.63;25.30;;;;;;;11.81;100.00;100888.47;5110147;56;1144819;-73
2023/10/10 20:23:25;;;;;;;37.80;26.70;;;;;;;11.79;100.00;100890.39;5117922;56;1146772;-73
2023/10/10 20:28:31;;;;;;;36.63;24.90;;;;;;;11.81;100.00;100891.97;5034326;57;1144967;-73
2023/10/10 20:33:38;;;;;;;34.30;23.77;;;;;;;11.80;100.00;100881.00;5091097;56;1145083;-74
2023/10/10 20:38:44;;;;;;;35.93;25.50;;;;;;;11.81;100.00;100868.59;5139920;56;1145151;-73
2023/10/10 20:43:50;;;;;;;39.13;26.20;;;;;;;11.80;100.00;100866.91;5096721;56;1145149;-73
2023/10/10 20:48:56;;;;;;;34.97;25.10;;;;;;;11.81;100.00;100865.47;5044961;56;1145019;-73
2023/10/10 20:54:02;;;;;;;40.70;26.50;;;;;;;11.82;100.00;100865.83;5064505;56;1145072;-73
2023/10/10 20:59:09;;;;;;;39.33;27.70;;;;;;;11.81;100.00;100865.95;5030130;56;1145127;-73
2023/10/10 21:04:16;;;;;;;34.77;24.73;;;;;;;11.82;100.00;100865.83;5025101;57;1145210;-73
2023/10/10 21:09:21;;;;;;;38.55;26.57;;;;;;;11.81;100.00;100858.84;5048522;56;1145342;-73
2023/10/10 21:14:27;;;;;;;38.93;23.97;;;;;;;11.81;100.00;100844.74;5012886;57;1145199;-73
2023/10/10 21:19:33;;;;;;;38.90;25.47;;;;;;;11.86;100.00;100848.73;5087042;56;1145106;-73
2023/10/10 21:24:38;;;;;;;38.57;24.87;;;;;;;11.88;100.00;100833.56;5098188;56;1145262;-73
2023/10/10 21:29:44;;;;;;;36.70;24.67;;;;;;;11.93;100.00;100823.42;5056814;57;1145220;-73
2023/10/10 21:34:50;;;;;;;31.77;23.07;;;;;;;12.01;100.00;100801.62;5027173;57;1145427;-73
2023/10/10 21:39:56;;;;;;;39.77;24.00;;;;;;;12.08;100.00;100798.84;5057450;56;1145137;-74
2023/10/10 21:45:02;;;;;;;39.37;23.63;;;;;;;12.15;100.00;100785.47;5051576;56;1145315;-73
2023/10/10 21:50:10;;;;;;;31.27;19.43;;;;;;;12.21;100.00;100787.64;5018478;56;1145320;-73
2023/10/10 21:55:19;;;;;;;23.97;16.17;;;;;;;12.25;100.00;100793.03;5024402;56;1145360;-73
2023/10/10 22:05:40;;;;;;;34.03;22.27;;;;;;;12.24;100.00;100784.72;5066715;56;1145256;-73
2023/10/10 22:10:45;;;;;;;33.58;23.50;;;;;;;12.26;100.00;100780.63;5061469;56;1145241;-74
2023/10/10 22:15:51;;;;;;;31.13;22.43;;;;;;;12.31;100.00;100764.71;5066045;56;1145123;-73
2023/10/10 22:20:57;;;;;;;27.00;20.73;;;;;;;12.39;100.00;100757.44;5071710;56;1145298;-73
2023/10/10 22:26:04;;;;;;;29.37;21.20;;;;;;;12.47;100.00;100751.53;5038677;55;1145287;-73
2023/10/10 22:31:16;;;;;;;28.70;19.33;;;;;;;12.50;100.00;100757.44;5077767;56;1152782;-73
2023/10/10 22:36:22;;;;;;;30.35;19.30;;;;;;;12.52;100.00;100742.72;5010789;56;1145560;-73
2023/10/10 22:41:27;;;;;;;35.83;23.23;;;;;;;12.51;100.00;100750.31;4972541;57;1145150;-73
2023/10/10 22:46:33;;;;;;;36.53;26.23;;;;;;;12.50;100.00;100757.91;5013238;56;1145199;-73
2023/10/10 22:51:39;;;;;;;32.17;20.50;;;;;;;12.55;100.00;100751.73;5056142;57;1144886;-73
2023/10/10 22:56:44;;;;;;;27.50;18.80;;;;;;;12.58;100.00;100740.87;5057334;57;1144938;-73
2023/10/10 23:01:50;;;;;;;25.63;18.30;;;;;;;12.64;100.00;100745.68;5076767;57;1145019;-73
2023/10/10 23:06:56;;;;;;;27.70;17.67;;;;;;;12.70;100.00;100746.48;5057151;57;1145144;-74
2023/10/10 23:12:01;;;;;;;26.17;19.83;;;;;;;12.72;100.00;100738.39;5057498;57;1145519;-73
2023/10/10 23:17:08;;;;;;;26.93;19.73;;;;;;;12.72;100.00;100732.61;5089743;56;1145277;-73
2023/10/10 23:22:14;;;;;;;23.87;17.80;;;;;;;12.70;100.00;100725.25;5142922;55;1145245;-73
2023/10/10 23:27:20;;;;;;;24.30;18.30;;;;;;;12.66;100.00;100714.56;5142608;56;1144985;-73
2023/10/10 23:32:29;;;;;;;27.50;20.73;;;;;;;12.64;100.00;100711.19;5162477;56;1144994;-73
2023/10/10 23:37:36;;;;;;;27.53;19.90;;;;;;;12.63;100.00;100706.36;5135616;56;1144759;-73
2023/10/10 23:42:49;;;;;;;27.73;18.77;;;;;;;12.60;100.00;100696.48;5135261;56;1145290;-74
2023/10/10 23:47:59;;;;;;;27.63;18.13;;;;;;;12.58;100.00;100696.61;5141238;56;1145091;-73
2023/10/10 23:53:05;;;;;;;26.97;19.47;;;;;;;12.55;100.00;100692.88;5093065;56;1145220;-73
2023/10/10 23:58:17;;;;;;;26.43;18.37;;;;;;;12.57;100.00;100690.09;5035084;57;1145301;-74
